Time;durP1;ratioP1;P1;durP2;ratioP2;P2;SDS_P1;SDS_P2;PMS_P1;PMS_P2;Temp;Humidity;BMP_temperature;BMP_pressure;BME280_temperature;BME280_humidity;BME280_pressure;Samples;Min_cycle;Max_cycle;Signal;HPM_P1;HPM_P2
2022/08/16 06:00:22;;;;;;;5.75;4.20;;;;;;;;;;10594217;27;20823;-83
2022/08/16 06:05:23;;;;;;;5.05;4.15;;;;;;;;;;10591924;28;20110;-82
2022/08/16 06:10:24;;;;;;;4.18;3.72;;;;;;;;;;10593113;28;20031;-83
2022/08/16 06:15:39;;;;;;;5.35;4.40;;;;;;;;;;10590649;28;20016;-83
2022/08/16 06:20:40;;;;;;;4.40;3.72;;;;;;;;;;10590693;28;20053;-83
2022/08/16 06:25:41;;;;;;;5.65;4.38;;;;;;;;;;10591806;28;20024;-83
2022/08/16 06:30:42;;;;;;;4.05;3.42;;;;;;;;;;10590965;28;20079;-82
2022/08/16 06:35:43;;;;;;;6.03;4.28;;;;;;;;;;10589579;28;20028;-83
2022/08/16 06:40:44;;;;;;;5.82;4.50;;;;;;;;;;10595952;28;20028;-82
2022/08/16 06:45:46;;;;;;;8.88;6.05;;;;;;;;;;10589443;28;20119;-83
2022/08/16 06:50:48;;;;;;;7.47;6.03;;;;;;;;;;10585782;28;20043;-82
2022/08/16 06:55:50;;;;;;;11.80;6.10;;;;;;;;;;10586066;28;20055;-82
2022/08/16 07:00:51;;;;;;;6.47;4.75;;;;;;;;;;10588077;28;20035;-81
2022/08/16 07:05:52;;;;;;;8.32;4.53;;;;;;;;;;10585552;28;20024;-82
2022/08/16 07:10:53;;;;;;;5.45;3.63;;;;;;;;;;10563025;28;20020;-83
2022/08/16 07:15:54;;;;;;;7.47;5.40;;;;;;;;;;10556116;28;20032;-80
2022/08/16 07:20:57;;;;;;;6.28;4.35;;;;;;;;;;10556506;28;20069;-80
2022/08/16 07:25:58;;;;;;;6.68;5.00;;;;;;;;;;10555484;28;20034;-81
2022/08/16 07:31:01;;;;;;;5.28;4.55;;;;;;;;;;10556619;28;20051;-80
2022/08/16 07:36:03;;;;;;;6.82;5.55;;;;;;;;;;10556518;28;20027;-80
2022/08/16 07:41:05;;;;;;;6.10;5.15;;;;;;;;;;10558448;28;20055;-80
2022/08/16 07:46:06;;;;;;;6.00;5.32;;;;;;;;;;10550910;22;20056;-82
2022/08/16 07:51:07;;;;;;;7.13;4.32;;;;;;;;;;10475530;28;20028;-81
2022/08/16 07:56:08;;;;;;;8.10;6.03;;;;;;;;;;10456693;28;20105;-81
2022/08/16 08:01:10;;;;;;;9.00;5.57;;;;;;;;;;10429091;28;20040;-81
2022/08/16 08:06:12;;;;;;;8.82;5.30;;;;;;;;;;10428274;28;20403;-81
2022/08/16 08:11:13;;;;;;;9.30;6.60;;;;;;;;;;10427215;28;20021;-81
2022/08/16 08:16:14;;;;;;;6.55;5.57;;;;;;;;;;10426910;28;20029;-81
2022/08/16 08:21:18;;;;;;;8.23;5.95;;;;;;;;;;10426679;28;20029;-81
2022/08/16 08:26:19;;;;;;;5.47;4.78;;;;;;;;;;10427696;28;20025;-81
2022/08/16 08:31:20;;;;;;;8.30;6.45;;;;;;;;;;10425498;28;20471;-81
2022/08/16 08:36:27;;;;;;;7.00;5.70;;;;;;;;;;10425816;28;20030;-81
2022/08/16 08:41:28;;;;;;;9.15;7.13;;;;;;;;;;10425297;28;20022;-81
2022/08/16 08:46:29;;;;;;;10.60;8.43;;;;;;;;;;10427439;28;20428;-82
2022/08/16 08:51:30;;;;;;;7.05;6.13;;;;;;;;;;10428402;28;20049;-82
2022/08/16 08:56:40;;;;;;;6.18;5.55;;;;;;;;;;10429428;28;20382;-83
2022/08/16 09:01:42;;;;;;;8.15;5.90;;;;;;;;;;10434082;28;20026;-82
2022/08/16 09:06:43;;;;;;;6.82;5.80;;;;;;;;;;10430618;28;20045;-83
2022/08/16 09:11:45;;;;;;;12.00;6.68;;;;;;;;;;10429703;28;20448;-82
2022/08/16 09:16:46;;;;;;;9.10;5.90;;;;;;;;;;10437693;28;20033;-82
2022/08/16 09:21:48;;;;;;;11.18;7.13;;;;;;;;;;10437003;28;20036;-81
2022/08/16 09:26:49;;;;;;;7.75;6.35;;;;;;;;;;10427462;28;20029;-82
2022/08/16 09:31:51;;;;;;;14.88;12.77;;;;;;;;;;10426662;28;20079;-82
2022/08/16 09:36:56;;;;;;;10.15;6.13;;;;;;;;;;10430302;28;20056;-81
2022/08/16 09:41:59;;;;;;;7.47;6.22;;;;;;;;;;10439683;28;20026;-82
2022/08/16 09:47:00;;;;;;;7.63;6.85;;;;;;;;;;10443874;28;20056;-81
2022/08/16 09:52:01;;;;;;;7.60;6.43;;;;;;;;;;10452090;28;20049;-81
2022/08/16 09:57:02;;;;;;;7.60;6.03;;;;;;;;;;10457655;28;20060;-81
2022/08/16 10:02:05;;;;;;;7.75;5.88;;;;;;;;;;10447031;28;20029;-82
2022/08/16 10:07:06;;;;;;;8.57;7.07;;;;;;;;;;10434930;28;20033;-82
2022/08/16 10:17:28;;;;;;;8.13;5.78;;;;;;;;;;10446465;28;20457;-81
2022/08/16 10:22:29;;;;;;;7.03;6.22;;;;;;;;;;10445075;28;20033;-81
2022/08/16 10:27:30;;;;;;;6.63;5.50;;;;;;;;;;10441314;28;20028;-81
2022/08/16 10:32:31;;;;;;;8.07;5.30;;;;;;;;;;10438446;28;20033;-81
2022/08/16 10:37:33;;;;;;;9.27;7.82;;;;;;;;;;10440457;28;20117;-79
2022/08/16 10:42:34;;;;;;;9.35;7.38;;;;;;;;;;10441466;28;20025;-82
2022/08/16 10:47:41;;;;;;;9.73;5.85;;;;;;;;;;10443586;28;20535;-83
2022/08/16 10:59:04;;;;;;;5.97;4.78;;;;;;;;;;10461163;28;20017;-81
2022/08/16 11:10:24;;;;;;;7.00;5.50;;;;;;;;;;10336727;28;20039;-81
2022/08/16 11:16:11;;;;;;;8.38;5.20;;;;;;;;;;10218938;29;20035;-82
2022/08/16 11:33:24;;;;;;;9.07;5.32;;;;;;;;;;10308103;28;20030;-82
2022/08/16 11:44:30;;;;;;;8.27;6.07;;;;;;;;;;10208821;29;20036;-81
2022/08/16 12:06:34;;;;;;;6.25;5.10;;;;;;;;;;10366513;28;20046;-83
2022/08/16 12:40:22;;;;;;;6.75;4.78;;;;;;;;;;10403761;28;20519;-83
2022/08/16 13:25:40;;;;;;;8.68;5.95;;;;;;;;;;10443661;28;20029;-82
2022/08/16 13:30:44;;;;;;;8.23;5.50;;;;;;;;;;10426139;28;20087;-83
2022/08/16 13:35:47;;;;;;;9.95;5.53;;;;;;;;;;10423905;28;20098;-83
2022/08/16 13:40:52;;;;;;;8.48;7.20;;;;;;;;;;10431359;28;20026;-82
2022/08/16 13:45:55;;;;;;;7.80;7.00;;;;;;;;;;10464725;22;20045;-78
2022/08/16 13:50:57;;;;;;;7.45;6.32;;;;;;;;;;10462600;28;20063;-79
2022/08/16 13:55:58;;;;;;;6.50;5.50;;;;;;;;;;10461115;28;20047;-80
2022/08/16 14:00:59;;;;;;;8.52;6.68;;;;;;;;;;10463343;28;20053;-80
2022/08/16 14:06:01;;;;;;;6.97;5.07;;;;;;;;;;10462119;28;20509;-80
2022/08/16 14:11:04;;;;;;;8.38;4.90;;;;;;;;;;10464796;28;20111;-79
2022/08/16 14:16:05;;;;;;;7.38;6.30;;;;;;;;;;10462650;28;20028;-79
2022/08/16 14:21:06;;;;;;;7.53;6.60;;;;;;;;;;10470185;28;20017;-80
2022/08/16 14:26:07;;;;;;;6.72;5.65;;;;;;;;;;10471208;28;20032;-80
2022/08/16 14:31:08;;;;;;;6.85;5.50;;;;;;;;;;10469850;28;20475;-80
2022/08/16 14:36:09;;;;;;;6.65;5.20;;;;;;;;;;10469263;28;20121;-80
2022/08/16 14:41:10;;;;;;;8.85;6.05;;;;;;;;;;10470602;28;20036;-80
2022/08/16 14:46:11;;;;;;;9.75;7.85;;;;;;;;;;10469048;28;20364;-80
2022/08/16 14:51:14;;;;;;;11.48;7.35;;;;;;;;;;10467799;28;20112;-80
2022/08/16 14:56:15;;;;;;;15.18;13.57;;;;;;;;;;10467335;28;20025;-80
2022/08/16 15:01:16;;;;;;;7.60;6.15;;;;;;;;;;10469257;28;20104;-79
2022/08/16 15:06:17;;;;;;;9.35;5.75;;;;;;;;;;10467590;28;20154;-79
2022/08/16 15:11:18;;;;;;;8.10;5.68;;;;;;;;;;10467228;28;20108;-80
2022/08/16 15:16:20;;;;;;;8.50;6.35;;;;;;;;;;10468851;28;20021;-80
2022/08/16 15:21:21;;;;;;;7.03;6.15;;;;;;;;;;10467121;28;20029;-79
2022/08/16 15:26:22;;;;;;;8.60;5.78;;;;;;;;;;10468295;28;20112;-82
2022/08/16 15:31:25;;;;;;;7.15;6.47;;;;;;;;;;10469979;28;20125;-81
2022/08/16 15:36:26;;;;;;;6.93;5.75;;;;;;;;;;10468220;28;20036;-80
2022/08/16 15:41:52;;;;;;;9.20;6.25;;;;;;;;;;10469178;28;20476;-80
2022/08/16 15:46:54;;;;;;;6.80;5.80;;;;;;;;;;10467424;28;20227;-80
2022/08/16 15:51:55;;;;;;;7.47;5.90;;;;;;;;;;10468482;28;20017;-80
2022/08/16 15:57:00;;;;;;;7.93;7.13;;;;;;;;;;10468870;28;20086;-80
2022/08/16 16:02:01;;;;;;;7.38;5.72;;;;;;;;;;10471195;28;20040;-79
2022/08/16 16:07:03;;;;;;;8.55;6.68;;;;;;;;;;10483128;28;20554;-80
2022/08/16 16:12:05;;;;;;;6.40;5.80;;;;;;;;;;10465537;28;20040;-80
2022/08/16 16:17:06;;;;;;;7.32;6.32;;;;;;;;;;10464501;28;20029;-80
2022/08/16 16:22:07;;;;;;;5.78;4.88;;;;;;;;;;10464896;28;20041;-81
2022/08/16 16:27:09;;;;;;;7.05;5.47;;;;;;;;;;10467642;28;20100;-80
2022/08/16 16:32:12;;;;;;;6.28;5.68;;;;;;;;;;10468465;28;20053;-80
2022/08/16 16:37:14;;;;;;;7.47;6.75;;;;;;;;;;10467721;28;20021;-80
2022/08/16 16:42:16;;;;;;;8.55;6.38;;;;;;;;;;10467739;28;20405;-79
2022/08/16 16:47:18;;;;;;;8.45;6.70;;;;;;;;;;10468785;28;20071;-80
2022/08/16 16:52:22;;;;;;;6.40;5.32;;;;;;;;;;10463159;28;20029;-79
2022/08/16 17:02:43;;;;;;;6.30;4.53;;;;;;;;;;10461645;28;20029;-79
2022/08/16 17:07:46;;;;;;;6.30;5.28;;;;;;;;;;10459135;28;20053;-79
2022/08/16 17:12:48;;;;;;;6.65;5.53;;;;;;;;;;10458584;28;20032;-79
2022/08/16 17:17:49;;;;;;;6.30;4.95;;;;;;;;;;10458528;28;20043;-79
2022/08/16 17:22:51;;;;;;;6.63;4.90;;;;;;;;;;10459527;28;20013;-79
2022/08/16 17:27:52;;;;;;;5.20;4.70;;;;;;;;;;10458269;28;20032;-80
2022/08/16 17:32:54;;;;;;;6.15;4.50;;;;;;;;;;10460078;28;20017;-79
2022/08/16 17:37:57;;;;;;;4.93;4.43;;;;;;;;;;10457133;28;20106;-79
2022/08/16 17:42:58;;;;;;;4.57;4.18;;;;;;;;;;10458098;28;20027;-80
2022/08/16 17:48:00;;;;;;;5.72;4.43;;;;;;;;;;10458052;28;20029;-81
2022/08/16 17:53:06;;;;;;;5.20;4.70;;;;;;;;;;10467465;28;20025;-79
2022/08/16 17:58:09;;;;;;;7.68;4.38;;;;;;;;;;10466687;28;20025;-80
2022/08/16 18:03:23;;;;;;;5.30;4.72;;;;;;;;;;10469994;28;20112;-80
2022/08/16 18:08:24;;;;;;;7.30;4.65;;;;;;;;;;10474274;28;20055;-80
2022/08/16 18:13:26;;;;;;;5.60;4.53;;;;;;;;;;10473313;28;20526;-79
2022/08/16 18:18:27;;;;;;;4.70;4.05;;;;;;;;;;10469495;28;20470;-80
2022/08/16 18:23:30;;;;;;;5.82;4.53;;;;;;;;;;10466114;28;20490;-82
2022/08/16 18:28:37;;;;;;;6.57;4.32;;;;;;;;;;10469067;28;20021;-80
2022/08/16 18:33:38;;;;;;;6.85;4.68;;;;;;;;;;10459334;28;20033;-79
2022/08/16 18:38:39;;;;;;;8.02;4.50;;;;;;;;;;10468186;28;20047;-82
2022/08/16 18:43:53;;;;;;;6.07;4.43;;;;;;;;;;10468250;28;20021;-80
2022/08/16 18:48:56;;;;;;;4.75;4.30;;;;;;;;;;10466300;28;20047;-80
2022/08/16 18:53:57;;;;;;;4.80;4.40;;;;;;;;;;10466850;28;20096;-80
2022/08/16 18:58:59;;;;;;;5.10;4.70;;;;;;;;;;10473748;28;20032;-80
2022/08/16 19:04:00;;;;;;;4.97;4.55;;;;;;;;;;10467827;28;20483;-81
2022/08/16 19:09:01;;;;;;;6.10;4.70;;;;;;;;;;10475144;28;20025;-82
2022/08/16 19:14:05;;;;;;;5.20;4.70;;;;;;;;;;10477794;28;20035;-80
2022/08/16 19:19:15;;;;;;;5.78;4.68;;;;;;;;;;10482837;28;20033;-79
2022/08/16 19:24:16;;;;;;;4.50;4.10;;;;;;;;;;10480507;28;20043;-79
